createdAt,value
2023-02-27T00:02:14.296Z,240.05
2023-02-27T00:04:40.917Z,230.05
2023-02-27T00:07:08.658Z,227.68
2023-02-27T00:09:35.260Z,385.45
2023-02-27T00:12:02.365Z,213.35
2023-02-27T00:14:28.927Z,317.70
2023-02-27T00:16:55.433Z,235.40
2023-02-27T00:19:21.986Z,265.95
2023-02-27T00:21:48.552Z,234.02
2023-02-27T00:24:15.156Z,249.80
2023-02-27T00:26:41.809Z,234.30
2023-02-27T00:29:08.367Z,226.68
2023-02-27T00:31:34.955Z,294.75
2023-02-27T00:34:01.518Z,235.43
2023-02-27T00:36:28.156Z,319.27
2023-02-27T00:38:54.769Z,248.82
2023-02-27T00:41:21.427Z,309.42
2023-02-27T00:43:48.000Z,231.52
2023-02-27T00:46:14.716Z,232.40
2023-02-27T00:48:41.275Z,305.45
2023-02-27T00:51:08.291Z,271.35
2023-02-27T00:53:34.810Z,217.85
2023-02-27T00:56:01.309Z,235.00
2023-02-27T00:58:28.094Z,245.63
2023-02-27T01:00:54.622Z,409.27
2023-02-27T01:03:21.176Z,263.05
2023-02-27T01:05:47.664Z,334.70
2023-02-27T01:08:14.439Z,242.20
2023-02-27T01:10:41.053Z,303.08
2023-02-27T01:13:07.904Z,230.85
2023-02-27T01:15:35.274Z,255.15
2023-02-27T01:18:02.362Z,232.63
2023-02-27T01:20:29.043Z,257.02
2023-02-27T01:22:55.564Z,267.40
2023-02-27T01:25:24.967Z,266.38
2023-02-27T01:27:51.438Z,408.85
2023-02-27T01:30:18.250Z,352.08
2023-02-27T01:32:44.888Z,222.05
2023-02-27T01:35:11.616Z,326.60
2023-02-27T01:37:38.364Z,215.80
2023-02-27T01:40:07.018Z,262.73
2023-02-27T01:42:33.735Z,259.90
2023-02-27T01:45:12.238Z,221.68
2023-02-27T01:47:48.497Z,372.92
2023-02-27T01:50:16.374Z,292.63
2023-02-27T01:52:43.948Z,384.88
2023-02-27T01:55:13.667Z,284.17
2023-02-27T01:57:41.616Z,310.92
2023-02-27T02:00:09.305Z,285.98
2023-02-27T02:05:09.006Z,529.15
2023-02-27T02:07:38.558Z,313.27
2023-02-27T02:10:06.156Z,280.80
2023-02-27T02:12:36.505Z,291.73
2023-02-27T02:15:06.301Z,247.07
2023-02-27T02:18:00.290Z,315.55
2023-02-27T02:20:55.968Z,411.98
2023-02-27T02:23:35.978Z,267.48
2023-02-27T02:26:09.710Z,264.83
2023-02-27T02:28:51.518Z,274.70
2023-02-27T02:31:31.105Z,230.88
2023-02-27T02:34:35.336Z,227.32
2023-02-27T02:37:37.236Z,237.60
2023-02-27T02:40:35.261Z,235.43
2023-02-27T02:43:37.722Z,254.10
2023-02-27T02:46:22.524Z,289.92
2023-02-27T02:49:03.858Z,281.10
2023-02-27T02:51:31.214Z,271.33
2023-02-27T02:54:14.947Z,205.13
2023-02-27T02:56:46.442Z,278.92
2023-02-27T02:59:17.551Z,509.08
2023-02-27T03:01:50.171Z,256.35
2023-02-27T03:04:41.002Z,299.60
2023-02-27T03:07:26.159Z,530.45
2023-02-27T03:09:57.053Z,261.75
2023-02-27T03:12:24.888Z,344.23
2023-02-27T03:15:17.799Z,232.35
2023-02-27T03:17:47.799Z,288.08
2023-02-27T03:20:29.250Z,308.67
2023-02-27T03:23:00.291Z,463.17
2023-02-27T03:25:28.208Z,245.00
2023-02-27T03:28:00.908Z,405.38
2023-02-27T03:30:45.983Z,178.70
2023-02-27T03:37:44.317Z,217.20
2023-02-27T03:40:27.787Z,285.45
2023-02-27T03:43:06.033Z,409.40
2023-02-27T03:45:58.402Z,478.42
2023-02-27T03:48:25.405Z,220.00
2023-02-27T03:50:52.208Z,341.02
2023-02-27T03:53:34.897Z,240.50
2023-02-27T03:56:03.482Z,229.95
2023-02-27T03:58:30.398Z,301.42
2023-02-27T04:00:57.051Z,243.23
2023-02-27T04:03:23.754Z,272.20
2023-02-27T04:05:50.765Z,232.52
2023-02-27T04:08:42.241Z,250.93
2023-02-27T04:11:20.705Z,218.82
2023-02-27T04:14:05.318Z,278.83
2023-02-27T04:16:47.226Z,255.60
2023-02-27T04:19:32.064Z,264.48
2023-02-27T04:22:04.223Z,305.52
2023-02-27T04:24:50.642Z,257.80
2023-02-27T04:27:40.929Z,279.38
2023-02-27T04:30:16.743Z,276.35
2023-02-27T04:32:50.303Z,180.75
2023-02-27T04:35:26.430Z,273.35
2023-02-27T04:38:04.518Z,237.45
2023-02-27T04:40:44.825Z,243.35
2023-02-27T04:43:12.496Z,270.00
2023-02-27T04:45:41.369Z,215.77
2023-02-27T04:48:21.637Z,417.95
2023-02-27T04:51:16.415Z,219.38
2023-02-27T04:53:51.154Z,214.25
2023-02-27T04:56:31.774Z,363.67
2023-02-27T04:59:22.618Z,270.75
2023-02-27T05:01:55.779Z,251.02
2023-02-27T05:04:24.603Z,235.45
2023-02-27T05:06:54.309Z,251.10
2023-02-27T05:09:32.771Z,271.95
2023-02-27T05:12:06.216Z,434.80
2023-02-27T05:14:37.129Z,200.32
2023-02-27T05:17:07.960Z,279.60
2023-02-27T05:22:24.104Z,280.23
2023-02-27T05:24:59.666Z,253.93
2023-02-27T05:27:47.057Z,251.98
2023-02-27T05:30:36.685Z,391.35
2023-02-27T05:33:22.078Z,432.67
2023-02-27T05:35:53.197Z,237.82
2023-02-27T05:38:27.157Z,293.92
2023-02-27T05:41:03.538Z,260.73
2023-02-27T05:43:35.712Z,276.40
2023-02-27T05:46:12.723Z,247.35
2023-02-27T05:48:43.440Z,289.70
2023-02-27T05:51:11.939Z,230.65
2023-02-27T05:53:42.687Z,249.98
2023-02-27T05:56:10.277Z,231.32
2023-02-27T05:58:44.339Z,352.27
2023-02-27T06:01:12.407Z,251.57
2023-02-27T06:03:40.630Z,262.17
2023-02-27T06:06:17.560Z,242.90
2023-02-27T06:08:44.826Z,298.40
2023-02-27T06:11:13.141Z,248.05
2023-02-27T06:13:41.932Z,447.95
2023-02-27T06:16:10.693Z,244.35
2023-02-27T06:18:37.250Z,253.40
2023-02-27T06:21:03.973Z,241.60
2023-02-27T06:23:31.620Z,247.75
2023-02-27T06:25:58.310Z,356.73
2023-02-27T06:28:25.040Z,274.00
2023-02-27T06:30:55.376Z,332.80
2023-02-27T06:33:21.960Z,240.95
2023-02-27T06:35:49.416Z,442.33
2023-02-27T06:38:16.274Z,213.43
2023-02-27T06:40:42.849Z,215.30
2023-02-27T06:43:09.643Z,122.40
2023-02-27T06:45:36.900Z,58.75
2023-02-27T06:48:03.483Z,97.45
2023-02-27T06:50:30.044Z,23.90
2023-02-27T06:52:56.580Z,25.33
2023-02-27T06:55:24.890Z,24.52
2023-02-27T06:57:51.400Z,195.27
2023-02-27T07:00:18.500Z,25.67
2023-02-27T07:02:45.873Z,26.15
2023-02-27T07:05:12.746Z,26.70
2023-02-27T07:07:39.559Z,24.77
2023-02-27T07:10:08.286Z,24.65
2023-02-27T07:12:34.836Z,31.60
2023-02-27T07:15:01.433Z,28.45
2023-02-27T07:17:28.000Z,25.33
2023-02-27T07:19:54.604Z,21.85
2023-02-27T07:22:21.206Z,29.02
2023-02-27T07:24:47.902Z,21.17
2023-02-27T07:27:14.530Z,22.63
2023-02-27T07:29:41.075Z,22.35
2023-02-27T07:32:07.816Z,16.42
2023-02-27T07:34:34.967Z,18.40
2023-02-27T07:37:01.476Z,20.85
2023-02-27T07:39:28.164Z,12.05
2023-02-27T07:41:54.935Z,12.88
2023-02-27T07:44:22.404Z,17.33
2023-02-27T07:46:49.131Z,12.50
2023-02-27T07:49:15.800Z,16.08
2023-02-27T07:51:42.360Z,15.13
2023-02-27T07:54:08.889Z,22.58
2023-02-27T07:56:35.422Z,14.13
2023-02-27T07:59:01.951Z,14.70
2023-02-27T08:01:28.651Z,9.88
2023-02-27T08:03:56.397Z,16.40
2023-02-27T08:06:23.558Z,11.70
2023-02-27T08:08:50.866Z,15.35
2023-02-27T08:11:18.411Z,15.13
2023-02-27T08:14:02.799Z,15.57
2023-02-27T08:16:31.008Z,13.55
2023-02-27T08:18:58.227Z,12.85
2023-02-27T08:21:25.113Z,15.77
2023-02-27T08:23:51.960Z,10.75
2023-02-27T08:26:18.642Z,11.30
2023-02-27T08:28:45.918Z,11.88
2023-02-27T08:31:12.769Z,10.65
2023-02-27T08:33:39.448Z,13.70
2023-02-27T08:36:07.354Z,11.05
2023-02-27T08:38:33.943Z,9.05
2023-02-27T08:41:00.513Z,10.52
2023-02-27T08:43:27.056Z,11.25
2023-02-27T08:45:53.886Z,13.68
2023-02-27T08:48:20.681Z,8.48
2023-02-27T08:50:47.544Z,8.60
2023-02-27T08:53:14.400Z,9.73
2023-02-27T08:55:41.260Z,13.65
2023-02-27T08:58:08.582Z,9.30
2023-02-27T09:00:35.539Z,11.75
2023-02-27T09:03:02.325Z,16.45
2023-02-27T09:05:29.087Z,12.23
2023-02-27T09:07:55.762Z,9.00
2023-02-27T09:10:22.631Z,15.60
2023-02-27T09:12:49.376Z,11.23
2023-02-27T09:15:16.460Z,10.60
2023-02-27T09:17:43.111Z,15.07
2023-02-27T09:20:10.713Z,13.07
2023-02-27T09:22:37.293Z,10.52
2023-02-27T09:25:04.325Z,18.75
2023-02-27T09:27:30.920Z,13.32
2023-02-27T09:29:57.549Z,11.82
2023-02-27T09:32:24.724Z,11.70
2023-02-27T09:34:51.644Z,14.65
2023-02-27T09:37:21.271Z,13.73
2023-02-27T09:39:47.915Z,9.57
2023-02-27T09:42:17.328Z,12.05
2023-02-27T09:44:56.335Z,14.32
2023-02-27T09:47:30.138Z,8.35
2023-02-27T09:50:02.695Z,10.75
2023-02-27T09:52:32.092Z,8.48
2023-02-27T09:54:59.007Z,8.65
2023-02-27T09:57:37.760Z,9.27
2023-02-27T10:00:27.608Z,11.93
2023-02-27T10:03:13.032Z,7.15
2023-02-27T10:05:51.970Z,9.88
2023-02-27T10:08:26.868Z,15.40
2023-02-27T10:11:01.464Z,8.43
2023-02-27T10:13:47.591Z,11.77
2023-02-27T10:16:17.616Z,9.52
2023-02-27T10:18:49.017Z,9.85
2023-02-27T10:21:30.805Z,9.63
2023-02-27T10:24:27.355Z,7.88
2023-02-27T10:26:56.228Z,7.35
2023-02-27T10:29:29.459Z,10.32
2023-02-27T10:32:04.129Z,10.30
2023-02-27T10:34:31.519Z,7.88
2023-02-27T10:37:00.948Z,9.20
2023-02-27T10:39:28.019Z,9.05
2023-02-27T10:41:55.292Z,7.85
2023-02-27T10:44:24.369Z,12.32
2023-02-27T10:46:52.094Z,10.90
2023-02-27T10:49:21.689Z,7.60
2023-02-27T10:52:05.919Z,8.52
2023-02-27T10:54:32.515Z,6.05
2023-02-27T10:57:01.281Z,10.52
2023-02-27T10:59:35.694Z,9.90
2023-02-27T11:02:06.367Z,7.45
2023-02-27T11:04:36.324Z,14.48
2023-02-27T11:07:05.390Z,9.93
2023-02-27T11:09:33.200Z,13.32
2023-02-27T11:12:29.044Z,7.90
2023-02-27T11:14:57.958Z,6.40
2023-02-27T11:17:30.286Z,9.45
2023-02-27T11:19:58.059Z,9.60
2023-02-27T11:22:27.443Z,7.20
2023-02-27T11:25:21.904Z,7.65
2023-02-27T11:27:51.319Z,10.65
2023-02-27T11:30:28.634Z,10.73
2023-02-27T11:32:57.730Z,8.70
2023-02-27T11:35:26.504Z,9.68
2023-02-27T11:37:54.931Z,10.85
2023-02-27T11:40:30.268Z,7.97
2023-02-27T11:43:00.743Z,6.90
2023-02-27T11:46:16.007Z,12.95
2023-02-27T11:48:35.027Z,9.82
2023-02-27T11:51:11.067Z,8.13
2023-02-27T11:54:18.755Z,8.52
2023-02-27T11:57:00.576Z,6.43
2023-02-27T11:59:58.304Z,7.85
2023-02-27T12:02:48.040Z,8.20
2023-02-27T12:05:18.653Z,9.48
2023-02-27T12:07:54.244Z,9.43
2023-02-27T12:10:38.532Z,5.72
2023-02-27T12:13:12.673Z,7.65
2023-02-27T12:15:47.467Z,11.60
2023-02-27T12:18:19.716Z,7.45
2023-02-27T12:21:10.898Z,6.45
2023-02-27T12:23:46.068Z,6.63
2023-02-27T12:26:44.910Z,7.18
2023-02-27T12:29:19.466Z,6.45
2023-02-27T12:31:52.957Z,6.13
2023-02-27T12:34:34.949Z,5.47
2023-02-27T12:37:10.603Z,7.80
2023-02-27T12:39:38.782Z,8.75
2023-02-27T12:42:21.068Z,8.63
2023-02-27T12:45:27.160Z,4.88
2023-02-27T12:48:02.619Z,8.32
2023-02-27T12:51:00.413Z,6.20
2023-02-27T12:53:43.145Z,11.02
2023-02-27T12:56:42.105Z,7.90
2023-02-27T12:59:24.811Z,5.65
2023-02-27T13:01:59.248Z,7.85
2023-02-27T13:04:52.018Z,8.13
2023-02-27T13:07:26.710Z,8.05
2023-02-27T13:09:59.395Z,7.22
2023-02-27T13:12:40.839Z,5.00
2023-02-27T13:18:29.152Z,10.20
2023-02-27T13:21:17.438Z,6.97
2023-02-27T13:24:02.967Z,11.25
2023-02-27T13:26:35.820Z,8.70
2023-02-27T13:29:03.740Z,7.35
2023-02-27T13:31:35.550Z,10.40
2023-02-27T13:34:13.671Z,8.48
2023-02-27T13:36:47.480Z,13.50
2023-02-27T13:39:56.023Z,6.60
2023-02-27T13:42:25.502Z,8.93
2023-02-27T13:45:18.022Z,6.95
2023-02-27T13:47:50.073Z,8.60
2023-02-27T13:50:23.424Z,9.95
2023-02-27T13:52:50.946Z,7.38
2023-02-27T13:55:39.976Z,5.75
2023-02-27T13:58:17.644Z,8.00
2023-02-27T14:00:54.325Z,7.80
2023-02-27T14:03:25.736Z,10.45
2023-02-27T14:05:55.120Z,6.40
2023-02-27T14:08:30.883Z,12.05
2023-02-27T14:11:00.380Z,4.00
2023-02-27T14:13:45.062Z,4.97
2023-02-27T14:16:13.230Z,7.00
2023-02-27T14:18:51.845Z,8.38
2023-02-27T14:21:56.102Z,3.83
2023-02-27T14:24:26.973Z,6.15
2023-02-27T14:26:54.626Z,8.65
2023-02-27T14:29:24.655Z,9.45
2023-02-27T14:31:53.089Z,12.27
2023-02-27T14:34:21.227Z,8.50
2023-02-27T14:36:52.124Z,7.68
2023-02-27T14:39:30.921Z,8.55
2023-02-27T14:42:16.193Z,7.97
2023-02-27T14:44:44.017Z,7.45
2023-02-27T14:47:18.069Z,6.43
2023-02-27T14:49:47.226Z,6.55
2023-02-27T14:52:20.436Z,6.28
2023-02-27T14:54:48.365Z,10.05
2023-02-27T14:57:22.209Z,5.57
2023-02-27T14:59:50.945Z,9.73
2023-02-27T15:02:26.545Z,4.68
2023-02-27T15:04:56.440Z,4.72
2023-02-27T15:07:26.700Z,3.78
2023-02-27T15:09:56.190Z,7.60
2023-02-27T15:12:23.986Z,8.82
2023-02-27T15:14:53.309Z,9.40
2023-02-27T15:17:22.747Z,6.47
2023-02-27T15:19:52.252Z,8.40
2023-02-27T15:22:39.789Z,5.95
2023-02-27T15:25:08.439Z,5.90
2023-02-27T15:27:37.412Z,5.97
2023-02-27T15:30:04.840Z,4.72
2023-02-27T15:32:34.159Z,6.05
2023-02-27T15:35:04.785Z,10.82
2023-02-27T15:37:33.281Z,9.00
2023-02-27T15:40:00.826Z,5.95
2023-02-27T15:42:33.397Z,8.52
2023-02-27T15:45:00.053Z,6.82
2023-02-27T15:47:31.361Z,4.43
2023-02-27T15:50:07.127Z,8.95
2023-02-27T15:52:41.632Z,12.00
2023-02-27T15:55:16.169Z,8.18
2023-02-27T15:57:56.622Z,6.53
2023-02-27T16:00:30.605Z,7.85
2023-02-27T16:02:58.064Z,5.45
2023-02-27T16:05:35.925Z,6.78
2023-02-27T16:08:04.014Z,8.40
2023-02-27T16:10:36.738Z,7.63
2023-02-27T16:13:28.827Z,6.05
2023-02-27T16:16:05.643Z,6.13
2023-02-27T16:18:44.671Z,4.45
2023-02-27T16:21:14.547Z,7.10
2023-02-27T16:23:41.934Z,6.95
2023-02-27T16:26:08.682Z,12.13
2023-02-27T16:28:45.185Z,6.70
2023-02-27T16:31:22.816Z,3.42
2023-02-27T16:33:49.462Z,8.75
2023-02-27T16:36:21.670Z,7.55
2023-02-27T16:38:49.363Z,8.40
2023-02-27T16:41:18.125Z,8.25
2023-02-27T16:43:46.661Z,7.32
2023-02-27T16:46:19.858Z,10.23
2023-02-27T16:48:49.884Z,8.80
2023-02-27T16:51:24.623Z,8.73
2023-02-27T16:53:51.995Z,7.80
2023-02-27T16:56:23.684Z,7.30
2023-02-27T16:58:55.673Z,7.55
2023-02-27T17:01:22.599Z,6.20
2023-02-27T17:03:49.195Z,9.80
2023-02-27T17:06:15.727Z,13.93
2023-02-27T17:08:44.054Z,6.03
2023-02-27T17:11:11.871Z,8.50
2023-02-27T17:13:38.563Z,8.60
2023-02-27T17:16:06.272Z,7.57
2023-02-27T17:18:33.910Z,6.20
2023-02-27T17:21:01.961Z,8.38
2023-02-27T17:23:28.528Z,9.63
2023-02-27T17:25:55.859Z,10.02
2023-02-27T17:28:23.716Z,9.10
2023-02-27T17:30:50.584Z,8.52
2023-02-27T17:33:17.522Z,6.35
2023-02-27T17:35:44.073Z,6.82
2023-02-27T17:38:10.638Z,15.80
2023-02-27T17:40:39.172Z,8.93
2023-02-27T17:43:06.100Z,9.95
2023-02-27T17:45:32.707Z,10.15
2023-02-27T17:47:59.839Z,6.93
2023-02-27T17:50:26.433Z,6.68
2023-02-27T17:52:52.988Z,6.97
2023-02-27T17:55:19.745Z,5.72
2023-02-27T17:57:46.266Z,7.25
2023-02-27T18:00:15.520Z,9.27
2023-02-27T18:02:43.916Z,5.18
2023-02-27T18:05:10.610Z,8.10
2023-02-27T18:07:37.180Z,12.65
2023-02-27T18:10:05.844Z,8.32
2023-02-27T18:12:32.726Z,8.27
2023-02-27T18:14:59.472Z,11.10
2023-02-27T18:17:26.014Z,8.90
2023-02-27T18:19:52.555Z,11.45
2023-02-27T18:22:21.537Z,8.68
2023-02-27T18:24:48.838Z,9.27
2023-02-27T18:27:16.597Z,9.35
2023-02-27T18:29:45.823Z,10.43
2023-02-27T18:32:12.910Z,6.57
2023-02-27T18:34:40.598Z,10.23
2023-02-27T18:37:07.536Z,6.47
2023-02-27T18:39:35.213Z,6.65
2023-02-27T18:42:01.792Z,11.88
2023-02-27T18:44:28.335Z,4.93
2023-02-27T18:46:55.051Z,11.13
2023-02-27T18:49:21.794Z,7.93
2023-02-27T18:51:50.050Z,8.57
2023-02-27T18:54:16.579Z,12.35
2023-02-27T18:56:43.259Z,11.27
2023-02-27T18:59:11.920Z,6.55
2023-02-27T19:01:38.557Z,6.30
2023-02-27T19:04:06.788Z,10.93
2023-02-27T19:06:41.328Z,7.60
2023-02-27T19:09:12.587Z,5.88
2023-02-27T19:14:07.785Z,5.82
2023-02-27T19:16:34.638Z,9.27
2023-02-27T19:19:02.301Z,14.07
2023-02-27T19:21:29.318Z,8.13
2023-02-27T19:23:56.468Z,6.30
2023-02-27T19:26:24.192Z,9.43
2023-02-27T19:28:53.494Z,8.23
2023-02-27T19:31:21.660Z,8.32
2023-02-27T19:33:48.655Z,8.88
2023-02-27T19:36:18.384Z,7.28
2023-02-27T19:38:48.382Z,11.85
2023-02-27T19:41:17.096Z,6.72
2023-02-27T19:43:44.415Z,10.60
2023-02-27T19:46:14.414Z,7.95
2023-02-27T19:48:41.275Z,12.98
2023-02-27T19:51:10.744Z,11.10
2023-02-27T19:53:38.561Z,8.82
2023-02-27T19:56:08.535Z,14.10
2023-02-27T19:58:36.091Z,13.27
2023-02-27T20:01:03.757Z,12.80
2023-02-27T20:03:30.680Z,12.15
2023-02-27T20:05:57.336Z,9.68
2023-02-27T20:08:23.910Z,8.93
2023-02-27T20:10:55.074Z,11.65
2023-02-27T20:13:21.689Z,8.18
2023-02-27T20:15:57.958Z,9.82
2023-02-27T20:18:24.684Z,12.88
2023-02-27T20:21:05.389Z,10.80
2023-02-27T20:23:34.689Z,11.43
2023-02-27T20:26:01.827Z,8.30
2023-02-27T20:28:28.487Z,9.30
2023-02-27T20:30:55.062Z,13.77
2023-02-27T20:33:21.587Z,12.50
2023-02-27T20:35:48.236Z,7.75
2023-02-27T20:38:16.417Z,9.40
2023-02-27T20:40:43.052Z,14.02
2023-02-27T20:43:09.666Z,11.75
2023-02-27T20:45:39.737Z,14.52
2023-02-27T20:48:06.709Z,12.97
2023-02-27T20:50:34.120Z,15.30
2023-02-27T20:53:03.254Z,10.98
2023-02-27T20:55:30.154Z,12.63
2023-02-27T20:57:56.638Z,10.82
2023-02-27T21:00:25.283Z,11.73
2023-02-27T21:02:51.960Z,15.77
2023-02-27T21:05:18.742Z,14.60
2023-02-27T21:07:46.592Z,15.88
2023-02-27T21:10:13.783Z,14.45
2023-02-27T21:12:40.379Z,11.90
2023-02-27T21:15:07.418Z,10.07
2023-02-27T21:17:35.026Z,12.73
2023-02-27T21:20:06.680Z,21.35
2023-02-27T21:22:33.388Z,12.90
2023-02-27T21:25:00.009Z,12.13
2023-02-27T21:27:26.565Z,14.68
2023-02-27T21:29:53.196Z,13.45
2023-02-27T21:32:19.767Z,14.77
2023-02-27T21:34:46.320Z,17.30
2023-02-27T21:37:12.824Z,15.68
2023-02-27T21:39:39.543Z,12.52
2023-02-27T21:42:06.945Z,17.20
2023-02-27T21:44:33.474Z,15.60
2023-02-27T21:47:09.961Z,11.85
2023-02-27T21:49:37.680Z,12.85
2023-02-27T21:52:05.223Z,12.32
2023-02-27T21:54:31.770Z,17.55
2023-02-27T21:57:01.742Z,14.05
2023-02-27T21:59:28.542Z,19.15
2023-02-27T22:01:56.313Z,16.15
2023-02-27T22:04:22.985Z,22.20
2023-02-27T22:06:50.739Z,18.23
2023-02-27T22:09:17.757Z,17.13
2023-02-27T22:11:44.331Z,17.85
2023-02-27T22:14:11.687Z,14.75
2023-02-27T22:16:38.582Z,15.93
2023-02-27T22:19:07.462Z,14.95
2023-02-27T22:21:35.045Z,14.20
2023-02-27T22:24:01.953Z,18.88
2023-02-27T22:26:31.040Z,16.92
2023-02-27T22:28:58.472Z,15.80
2023-02-27T22:31:28.073Z,15.98
2023-02-27T22:33:58.757Z,17.85
2023-02-27T22:36:27.578Z,14.80
2023-02-27T22:38:54.079Z,15.82
2023-02-27T22:41:23.156Z,24.80
2023-02-27T22:43:50.317Z,14.18
2023-02-27T22:46:24.163Z,18.00
2023-02-27T22:48:54.954Z,17.38
2023-02-27T22:51:23.948Z,15.77
2023-02-27T22:53:50.766Z,17.98
2023-02-27T22:56:17.579Z,18.25
2023-02-27T22:58:45.282Z,17.70
2023-02-27T23:01:13.056Z,17.05
2023-02-27T23:03:41.068Z,17.75
2023-02-27T23:06:09.083Z,16.92
2023-02-27T23:08:35.877Z,15.27
2023-02-27T23:11:02.595Z,11.25
2023-02-27T23:13:29.231Z,13.25
2023-02-27T23:15:55.783Z,15.27
2023-02-27T23:18:22.337Z,11.85
2023-02-27T23:20:48.804Z,14.90
2023-02-27T23:23:15.377Z,15.95
2023-02-27T23:25:41.985Z,14.35
2023-02-27T23:28:08.500Z,16.67
2023-02-27T23:30:37.415Z,14.60
2023-02-27T23:33:04.065Z,16.70
2023-02-27T23:35:31.491Z,12.07
2023-02-27T23:37:59.086Z,17.92
2023-02-27T23:40:27.042Z,12.77
2023-02-27T23:42:54.152Z,13.32
2023-02-27T23:45:23.279Z,14.30
2023-02-27T23:47:55.562Z,18.60
2023-02-27T23:50:26.723Z,16.25
2023-02-27T23:52:54.697Z,18.45
2023-02-27T23:55:22.686Z,19.80
2023-02-27T23:57:53.717Z,14.35
